createdAt,value
2019-06-07T00:00:49.781Z,1010.73
2019-06-07T00:01:49.779Z,1010.76
2019-06-07T00:02:49.766Z,1010.79
2019-06-07T00:03:49.753Z,1010.76
2019-06-07T00:04:49.739Z,1010.76
2019-06-07T00:05:49.761Z,1010.77
2019-06-07T00:06:49.716Z,1010.76
2019-06-07T00:07:49.706Z,1010.72
2019-06-07T00:08:49.701Z,1010.75
2019-06-07T00:09:49.686Z,1010.72
2019-06-07T00:10:49.673Z,1010.73
2019-06-07T00:11:49.661Z,1010.68
2019-06-07T00:12:49.651Z,1010.72
2019-06-07T00:13:49.643Z,1010.69
2019-06-07T00:14:49.716Z,1010.67
2019-06-07T00:15:49.623Z,1010.72
2019-06-07T00:16:49.606Z,1010.66
2019-06-07T00:17:49.605Z,1010.65
2019-06-07T00:18:49.586Z,1010.63
2019-06-07T00:19:49.609Z,1010.63
2019-06-07T00:20:49.562Z,1010.60
2019-06-07T00:22:31.217Z,1010.62
2019-06-07T00:22:50.543Z,1010.60
2019-06-07T00:23:49.531Z,1010.57
2019-06-07T00:24:49.523Z,1010.60
2019-06-07T00:25:49.508Z,1010.62
2019-06-07T00:26:58.418Z,1010.61
2019-06-07T00:27:50.485Z,1010.63
2019-06-07T00:28:49.475Z,1010.61
2019-06-07T00:29:49.466Z,1010.63
2019-06-07T00:30:52.028Z,1010.66
2019-06-07T00:31:49.443Z,1010.67
2019-06-07T00:32:49.435Z,1010.65
2019-06-07T00:33:49.422Z,1010.70
2019-06-07T00:34:49.410Z,1010.73
2019-06-07T00:35:49.399Z,1010.71
2019-06-07T00:36:49.387Z,1010.70
2019-06-07T00:37:49.379Z,1010.76
2019-06-07T00:38:49.370Z,1010.74
2019-06-07T00:40:12.953Z,1010.67
2019-06-07T00:40:50.343Z,1010.74
2019-06-07T00:41:49.334Z,1010.73
2019-06-07T00:42:49.322Z,1010.70
2019-06-07T00:43:49.314Z,1010.68
2019-06-07T00:44:49.328Z,1010.69
2019-06-07T00:45:49.296Z,1010.65
2019-06-07T00:46:49.279Z,1010.63
2019-06-07T00:47:49.271Z,1010.62
2019-06-07T00:48:49.257Z,1010.70
2019-06-07T00:49:49.257Z,1010.64
2019-06-07T00:50:49.235Z,1010.63
2019-06-07T00:51:51.398Z,1010.63
2019-06-07T00:53:50.201Z,1010.61
2019-06-07T00:54:49.200Z,1010.65
2019-06-07T00:55:49.185Z,1010.65
2019-06-07T00:56:49.170Z,1010.69
2019-06-07T00:57:49.157Z,1010.66
2019-06-07T00:59:09.813Z,1010.65
2019-06-07T00:59:50.134Z,1010.61
2019-06-07T01:00:49.149Z,1010.51
2019-06-07T01:01:49.124Z,1010.55
2019-06-07T01:02:49.103Z,1010.57
2019-06-07T01:03:49.095Z,1010.58
2019-06-07T01:04:49.084Z,1010.60
2019-06-07T01:05:49.074Z,1010.69
2019-06-07T01:06:49.085Z,1010.70
2019-06-07T01:07:49.051Z,1010.70
2019-06-07T01:08:49.042Z,1010.72
2019-06-07T01:09:49.026Z,1010.65
2019-06-07T01:10:53.660Z,1010.64
2019-06-07T01:11:50.010Z,1010.67
2019-06-07T01:12:48.997Z,1010.63
2019-06-07T01:13:48.986Z,1010.67
2019-06-07T01:14:48.988Z,1010.64
2019-06-07T01:15:48.961Z,1010.60
2019-06-07T01:16:57.099Z,1010.60
2019-06-07T01:18:25.847Z,1010.59
2019-06-07T01:18:51.353Z,1010.54
2019-06-07T01:19:48.918Z,1010.52
2019-06-07T01:20:48.908Z,1010.58
2019-06-07T01:21:48.895Z,1010.61
2019-06-07T01:22:48.888Z,1010.62
2019-06-07T01:24:07.929Z,1010.65
2019-06-07T01:24:49.870Z,1010.64
2019-06-07T01:25:48.851Z,1010.59
2019-06-07T01:26:48.840Z,1010.59
2019-06-07T01:27:48.834Z,1010.57
2019-06-07T01:28:48.820Z,1010.59
2019-06-07T01:29:48.809Z,1010.56
2019-06-07T01:30:48.802Z,1010.55
2019-06-07T01:31:48.789Z,1010.54
2019-06-07T01:32:48.778Z,1010.50
2019-06-07T01:33:51.160Z,1010.51
2019-06-07T01:34:48.757Z,1010.43
2019-06-07T01:35:48.743Z,1010.43
2019-06-07T01:36:48.732Z,1010.40
2019-06-07T01:37:48.733Z,1010.38
2019-06-07T01:38:48.711Z,1010.41
2019-06-07T01:39:48.733Z,1010.50
2019-06-07T01:40:48.694Z,1010.51
2019-06-07T01:41:48.677Z,1010.60
2019-06-07T01:42:48.670Z,1010.63
2019-06-07T01:43:48.656Z,1010.64
2019-06-07T01:44:48.653Z,1010.63
2019-06-07T01:45:48.636Z,1010.62
2019-06-07T01:46:48.625Z,1010.58
2019-06-07T01:47:48.613Z,1010.53
2019-06-07T01:48:49.970Z,1010.59
2019-06-07T01:49:48.589Z,1010.65
2019-06-07T01:50:48.582Z,1010.60
2019-06-07T01:51:48.594Z,1010.62
2019-06-07T01:52:48.560Z,1010.58
2019-06-07T01:53:48.577Z,1010.61
2019-06-07T01:54:57.481Z,1010.55
2019-06-07T01:55:49.531Z,1010.56
2019-06-07T01:56:48.516Z,1010.48
2019-06-07T01:57:48.789Z,1010.54
2019-06-07T01:58:48.493Z,1010.54
2019-06-07T01:59:48.483Z,1010.50
2019-06-07T02:00:48.473Z,1010.48
2019-06-07T02:01:48.457Z,1010.44
2019-06-07T02:02:48.504Z,1010.48
2019-06-07T02:03:48.437Z,1010.54
2019-06-07T02:04:48.445Z,1010.62
2019-06-07T02:05:48.415Z,1010.64
2019-06-07T02:06:48.411Z,1010.69
2019-06-07T02:07:48.397Z,1010.65
2019-06-07T02:08:48.382Z,1010.65
2019-06-07T02:09:48.374Z,1010.66
2019-06-07T02:10:48.361Z,1010.70
2019-06-07T02:11:48.357Z,1010.70
2019-06-07T02:12:48.342Z,1010.77
2019-06-07T02:13:48.327Z,1010.77
2019-06-07T02:14:48.321Z,1010.80
2019-06-07T02:15:48.306Z,1010.86
2019-06-07T02:16:48.297Z,1010.88
2019-06-07T02:17:48.283Z,1010.89
2019-06-07T02:19:01.357Z,1010.94
2019-06-07T02:19:49.262Z,1010.96
2019-06-07T02:20:48.251Z,1010.99
2019-06-07T02:21:48.241Z,1010.97
2019-06-07T02:22:48.226Z,1011.01
2019-06-07T02:23:48.218Z,1011.01
2019-06-07T02:25:34.047Z,1010.96
2019-06-07T02:25:50.585Z,1010.94
2019-06-07T02:26:48.188Z,1010.98
2019-06-07T02:27:48.203Z,1010.98
2019-06-07T02:28:48.171Z,1010.94
2019-06-07T02:29:48.153Z,1010.96
2019-06-07T02:30:59.438Z,1010.93
2019-06-07T02:31:49.129Z,1010.96
2019-06-07T02:32:48.120Z,1010.92
2019-06-07T02:33:48.107Z,1010.92
2019-06-07T02:34:48.113Z,1010.94
2019-06-07T02:35:48.087Z,1010.87
2019-06-07T02:36:48.075Z,1010.90
2019-06-07T02:37:48.105Z,1010.84
2019-06-07T02:38:48.049Z,1010.78
2019-06-07T02:39:48.043Z,1010.80
2019-06-07T02:40:48.032Z,1010.84
2019-06-07T02:41:48.024Z,1010.83
2019-06-07T02:42:48.013Z,1010.86
2019-06-07T02:43:48.001Z,1010.86
2019-06-07T02:44:47.988Z,1010.82
2019-06-07T02:45:47.977Z,1010.80
2019-06-07T02:46:49.955Z,1010.80
2019-06-07T02:47:47.957Z,1010.80
2019-06-07T02:48:47.942Z,1010.84
2019-06-07T02:49:47.932Z,1010.84
2019-06-07T02:50:47.924Z,1010.83
2019-06-07T02:51:47.914Z,1010.84
2019-06-07T02:52:49.063Z,1010.83
2019-06-07T02:53:47.888Z,1010.90
2019-06-07T02:54:47.883Z,1010.93
2019-06-07T02:56:34.253Z,1010.90
2019-06-07T02:56:57.818Z,1010.93
2019-06-07T02:57:48.847Z,1010.94
2019-06-07T02:58:47.869Z,1010.88
2019-06-07T03:00:06.700Z,1010.79
2019-06-07T03:01:07.415Z,1010.79
2019-06-07T03:01:48.801Z,1010.74
2019-06-07T03:02:47.790Z,1010.79
2019-06-07T03:03:47.780Z,1010.78
2019-06-07T03:04:47.774Z,1010.77
2019-06-07T03:05:47.772Z,1010.83
2019-06-07T03:06:47.743Z,1010.91
2019-06-07T03:07:47.734Z,1010.99
2019-06-07T03:08:47.726Z,1011.05
2019-06-07T03:09:47.719Z,1011.06
2019-06-07T03:10:47.702Z,1011.10
2019-06-07T03:11:47.687Z,1011.06
2019-06-07T03:12:47.678Z,1011.08
2019-06-07T03:13:47.674Z,1011.09
2019-06-07T03:14:47.661Z,1011.10
2019-06-07T03:15:50.217Z,1011.16
2019-06-07T03:16:47.634Z,1011.17
2019-06-07T03:17:47.666Z,1011.13
2019-06-07T03:18:47.611Z,1011.12
2019-06-07T03:19:47.609Z,1011.06
2019-06-07T03:21:04.700Z,1011.13
2019-06-07T03:21:48.577Z,1011.17
2019-06-07T03:22:47.568Z,1011.21
2019-06-07T03:23:47.555Z,1011.19
2019-06-07T03:24:47.546Z,1011.20
2019-06-07T03:25:47.531Z,1011.21
2019-06-07T03:27:31.710Z,1011.18
2019-06-07T03:27:50.167Z,1011.21
2019-06-07T03:28:47.501Z,1011.17
2019-06-07T03:29:47.488Z,1011.23
2019-06-07T03:31:00.818Z,1011.22
2019-06-07T03:31:48.514Z,1011.20
2019-06-07T03:32:48.614Z,1011.24
2019-06-07T03:33:47.447Z,1011.24
2019-06-07T03:34:47.442Z,1011.21
2019-06-07T03:35:47.488Z,1011.27
2019-06-07T03:36:47.412Z,1011.26
2019-06-07T03:37:47.402Z,1011.24
2019-06-07T03:38:47.392Z,1011.24
2019-06-07T03:39:47.381Z,1011.19
2019-06-07T03:40:47.369Z,1011.21
2019-06-07T03:42:05.331Z,1011.24
2019-06-07T03:42:48.347Z,1011.24
2019-06-07T03:43:47.336Z,1011.21
2019-06-07T03:44:47.330Z,1011.17
2019-06-07T03:45:47.335Z,1011.20
2019-06-07T03:46:47.327Z,1011.19
2019-06-07T03:47:47.341Z,1011.19
2019-06-07T03:48:47.289Z,1011.19
2019-06-07T03:49:47.293Z,1011.21
2019-06-07T03:50:47.271Z,1011.22
2019-06-07T03:51:47.263Z,1011.27
2019-06-07T03:52:47.247Z,1011.30
2019-06-07T03:53:47.241Z,1011.34
2019-06-07T03:54:47.235Z,1011.40
2019-06-07T03:55:47.216Z,1011.46
2019-06-07T03:56:47.197Z,1011.44
2019-06-07T03:58:30.109Z,1011.42
2019-06-07T03:58:50.012Z,1011.39
2019-06-07T03:59:47.208Z,1011.40
2019-06-07T04:00:47.149Z,1011.37
2019-06-07T04:01:47.152Z,1011.41
2019-06-07T04:02:47.135Z,1011.43
2019-06-07T04:03:51.835Z,1011.47
2019-06-07T04:04:47.117Z,1011.47
2019-06-07T04:05:47.124Z,1011.48
2019-06-07T04:06:47.085Z,1011.49
2019-06-07T04:07:47.075Z,1011.52
2019-06-07T04:08:47.061Z,1011.43
2019-06-07T04:09:47.052Z,1011.40
2019-06-07T04:10:59.238Z,1011.36
2019-06-07T04:11:48.031Z,1011.36
2019-06-07T04:12:47.019Z,1011.35
2019-06-07T04:13:47.010Z,1011.38
2019-06-07T04:14:47.032Z,1011.37
2019-06-07T04:15:47.077Z,1011.42
2019-06-07T04:16:46.985Z,1011.44
2019-06-07T04:18:01.532Z,1011.46
2019-06-07T04:18:47.964Z,1011.47
2019-06-07T04:19:46.945Z,1011.49
2019-06-07T04:20:46.934Z,1011.48
2019-06-07T04:21:46.961Z,1011.51
2019-06-07T04:22:46.910Z,1011.52
2019-06-07T04:23:46.901Z,1011.59
2019-06-07T04:24:46.920Z,1011.56
2019-06-07T04:25:46.878Z,1011.58
2019-06-07T04:26:46.978Z,1011.55
2019-06-07T04:27:46.855Z,1011.50
2019-06-07T04:30:06.538Z,1011.48
2019-06-07T04:30:47.820Z,1011.50
2019-06-07T04:31:46.811Z,1011.46
2019-06-07T04:32:46.799Z,1011.53
2019-06-07T04:33:46.793Z,1011.49
2019-06-07T04:34:46.883Z,1011.52
2019-06-07T04:35:46.770Z,1011.53
2019-06-07T04:36:58.624Z,1011.56
2019-06-07T04:37:47.744Z,1011.55
2019-06-07T04:38:46.740Z,1011.55
2019-06-07T04:39:46.747Z,1011.60
2019-06-07T04:40:47.091Z,1011.57
2019-06-07T04:41:46.706Z,1011.56
2019-06-07T04:42:46.696Z,1011.51
2019-06-07T04:43:46.686Z,1011.53
2019-06-07T04:44:46.674Z,1011.54
2019-06-07T04:45:51.161Z,1011.49
2019-06-07T04:46:46.647Z,1011.47
2019-06-07T04:47:46.637Z,1011.48
2019-06-07T04:48:46.628Z,1011.48
2019-06-07T04:49:46.615Z,1011.45
2019-06-07T04:50:46.604Z,1011.43
2019-06-07T04:51:46.592Z,1011.42
2019-06-07T04:52:46.584Z,1011.42
2019-06-07T04:53:46.570Z,1011.43
2019-06-07T04:54:46.564Z,1011.41
2019-06-07T04:55:46.552Z,1011.41
2019-06-07T04:56:46.542Z,1011.37
2019-06-07T04:57:46.530Z,1011.32
2019-06-07T04:58:46.522Z,1011.34
2019-06-07T05:00:12.765Z,1011.30
2019-06-07T05:00:54.134Z,1011.31
2019-06-07T05:01:47.480Z,1011.35
2019-06-07T05:02:46.472Z,1011.32
2019-06-07T05:03:46.525Z,1011.37
2019-06-07T05:04:46.453Z,1011.39
2019-06-07T05:05:46.441Z,1011.38
2019-06-07T05:06:46.429Z,1011.41
2019-06-07T05:07:46.534Z,1011.43
2019-06-07T05:08:46.407Z,1011.43
2019-06-07T05:09:46.398Z,1011.49
2019-06-07T05:10:46.383Z,1011.44
2019-06-07T05:11:46.375Z,1011.43
2019-06-07T05:12:46.365Z,1011.40
2019-06-07T05:13:46.355Z,1011.43
2019-06-07T05:14:46.341Z,1011.40
2019-06-07T05:15:46.330Z,1011.41
2019-06-07T05:16:46.326Z,1011.43
2019-06-07T05:17:46.337Z,1011.46
2019-06-07T05:18:46.299Z,1011.46
2019-06-07T05:19:46.284Z,1011.49
2019-06-07T05:20:46.344Z,1011.51
2019-06-07T05:22:02.601Z,1011.52
2019-06-07T05:22:47.251Z,1011.57
2019-06-07T05:24:09.679Z,1011.58
2019-06-07T05:24:47.230Z,1011.54
2019-06-07T05:25:46.218Z,1011.51
2019-06-07T05:26:46.211Z,1011.52
2019-06-07T05:27:46.800Z,1011.49
2019-06-07T05:28:46.187Z,1011.52
2019-06-07T05:30:09.089Z,1011.49
2019-06-07T05:31:47.152Z,1011.44
2019-06-07T05:32:46.337Z,1011.52
2019-06-07T05:33:46.132Z,1011.52
2019-06-07T05:34:47.350Z,1011.49
2019-06-07T05:35:46.132Z,1011.53
2019-06-07T05:36:47.870Z,1011.52
2019-06-07T05:37:47.093Z,1011.57
2019-06-07T05:38:46.101Z,1011.60
2019-06-07T05:39:46.734Z,1011.52
2019-06-07T05:40:48.784Z,1011.53
2019-06-07T05:41:46.046Z,1011.51
2019-06-07T05:42:46.880Z,1011.54
2019-06-07T05:44:01.861Z,1011.54
2019-06-07T05:44:47.012Z,1011.49
2019-06-07T05:45:47.069Z,1011.54
2019-06-07T05:46:47.403Z,1011.55
2019-06-07T05:47:50.600Z,1011.45
2019-06-07T05:48:46.968Z,1011.51
2019-06-07T05:49:47.272Z,1011.55
2019-06-07T05:50:55.986Z,1011.49
2019-06-07T05:51:46.933Z,1011.48
2019-06-07T05:52:47.581Z,1011.46
2019-06-07T05:53:46.298Z,1011.44
2019-06-07T05:54:47.101Z,1011.46
2019-06-07T05:55:47.663Z,1011.46
2019-06-07T05:56:45.879Z,1011.46
2019-06-07T05:57:50.921Z,1011.46
2019-06-07T05:58:46.864Z,1011.51
2019-06-07T05:59:47.467Z,1011.50
2019-06-07T06:00:47.405Z,1011.51
2019-06-07T06:01:56.006Z,1011.52
2019-06-07T06:03:04.423Z,1011.50
2019-06-07T06:03:48.492Z,1011.59
2019-06-07T06:04:49.276Z,1011.54
2019-06-07T06:05:54.569Z,1011.57
2019-06-07T06:06:47.592Z,1011.58
2019-06-07T06:07:50.514Z,1011.59
2019-06-07T06:08:47.973Z,1011.57
2019-06-07T06:09:46.171Z,1011.48
2019-06-07T06:10:48.629Z,1011.54
2019-06-07T06:11:59.560Z,1011.51
2019-06-07T06:12:51.682Z,1011.54
2019-06-07T06:14:05.357Z,1011.54
2019-06-07T06:14:47.178Z,1011.56
2019-06-07T06:16:00.431Z,1011.53
2019-06-07T06:16:49.690Z,1011.48
2019-06-07T06:17:49.031Z,1011.55
2019-06-07T06:18:47.718Z,1011.53
2019-06-07T06:19:49.635Z,1011.53
2019-06-07T06:21:09.455Z,1011.60
2019-06-07T06:21:46.614Z,1011.60
2019-06-07T06:22:48.728Z,1011.57
2019-06-07T06:23:50.907Z,1011.64
2019-06-07T06:25:22.558Z,1011.66
2019-06-07T06:25:55.652Z,1011.66
2019-06-07T06:26:52.274Z,1011.71
2019-06-07T06:28:46.540Z,1011.75
2019-06-07T06:29:47.056Z,1011.73
2019-06-07T06:30:47.902Z,1011.71
2019-06-07T06:32:35.844Z,1011.72
2019-06-07T06:32:52.667Z,1011.70
2019-06-07T06:33:47.485Z,1011.70
2019-06-07T06:34:49.251Z,1011.68
2019-06-07T06:35:49.394Z,1011.70
2019-06-07T06:36:47.779Z,1011.64
2019-06-07T06:37:49.578Z,1011.64
2019-06-07T06:38:49.391Z,1011.62
2019-06-07T06:39:48.218Z,1011.65
2019-06-07T06:40:49.059Z,1011.61
2019-06-07T06:41:58.576Z,1011.61
2019-06-07T06:42:50.092Z,1011.64
2019-06-07T06:43:49.441Z,1011.64
2019-06-07T06:44:47.120Z,1011.63
2019-06-07T06:45:49.753Z,1011.65
2019-06-07T06:46:56.167Z,1011.65
2019-06-07T06:47:49.017Z,1011.64
2019-06-07T06:48:49.446Z,1011.57
2019-06-07T06:49:49.145Z,1011.62
2019-06-07T06:50:49.024Z,1011.62
2019-06-07T06:51:50.037Z,1011.64
2019-06-07T06:52:50.785Z,1011.61
2019-06-07T06:53:48.740Z,1011.65
2019-06-07T06:54:53.577Z,1011.58
2019-06-07T06:55:48.455Z,1011.60
2019-06-07T06:56:47.001Z,1011.53
2019-06-07T06:57:45.856Z,1011.51
2019-06-07T06:59:34.006Z,1011.51
2019-06-07T06:59:49.626Z,1011.50
2019-06-07T07:00:57.000Z,1011.49
2019-06-07T07:01:49.448Z,1011.54
2019-06-07T07:03:32.729Z,1011.54
2019-06-07T07:04:09.562Z,1011.46
2019-06-07T07:04:48.741Z,1011.51
2019-06-07T07:05:49.550Z,1011.51
2019-06-07T07:06:45.569Z,1011.50
2019-06-07T07:07:45.945Z,1011.56
2019-06-07T07:08:47.893Z,1011.56
2019-06-07T07:09:51.082Z,1011.55
2019-06-07T07:10:48.555Z,1011.57
2019-06-07T07:12:07.641Z,1011.57
2019-06-07T07:12:47.861Z,1011.60
2019-06-07T07:13:49.209Z,1011.55
2019-06-07T07:14:49.169Z,1011.56
2019-06-07T07:15:47.358Z,1011.56
2019-06-07T07:16:49.999Z,1011.54
2019-06-07T07:17:54.007Z,1011.61
2019-06-07T07:18:47.571Z,1011.53
2019-06-07T07:19:48.267Z,1011.60
2019-06-07T07:20:45.894Z,1011.56
2019-06-07T07:21:45.954Z,1011.51
2019-06-07T07:22:48.047Z,1011.54
2019-06-07T07:24:05.474Z,1011.55
2019-06-07T07:24:47.045Z,1011.59
2019-06-07T07:25:50.616Z,1011.62
2019-06-07T07:26:48.178Z,1011.56
2019-06-07T07:27:47.018Z,1011.50
2019-06-07T07:28:46.582Z,1011.57
2019-06-07T07:29:49.566Z,1011.58
2019-06-07T07:30:47.273Z,1011.55
2019-06-07T07:31:45.651Z,1011.57
2019-06-07T07:32:46.717Z,1011.56
2019-06-07T07:34:23.978Z,1011.53
2019-06-07T07:34:49.168Z,1011.55
2019-06-07T07:36:07.871Z,1011.60
2019-06-07T07:36:48.197Z,1011.62
2019-06-07T07:37:48.928Z,1011.62
2019-06-07T07:38:53.231Z,1011.59
2019-06-07T07:39:48.661Z,1011.57
2019-06-07T07:41:01.972Z,1011.63
2019-06-07T07:42:12.370Z,1011.60
2019-06-07T07:42:47.558Z,1011.62
2019-06-07T07:43:51.917Z,1011.65
2019-06-07T07:44:47.168Z,1011.61
2019-06-07T07:45:50.334Z,1011.61
2019-06-07T07:46:46.624Z,1011.64
2019-06-07T07:48:07.131Z,1011.69
2019-06-07T07:48:46.028Z,1011.65
2019-06-07T07:49:45.389Z,1011.69
2019-06-07T07:50:47.515Z,1011.59
2019-06-07T07:51:46.321Z,1011.61
2019-06-07T07:52:45.933Z,1011.58
2019-06-07T07:53:54.358Z,1011.59
2019-06-07T07:54:46.799Z,1011.58
2019-06-07T07:55:45.203Z,1011.60
2019-06-07T07:56:45.737Z,1011.56
2019-06-07T07:57:46.591Z,1011.56
2019-06-07T07:58:49.740Z,1011.59
2019-06-07T08:00:03.270Z,1011.59
2019-06-07T08:00:52.812Z,1011.61
2019-06-07T08:01:46.105Z,1011.61
2019-06-07T08:02:48.355Z,1011.60
2019-06-07T08:03:45.719Z,1011.60
2019-06-07T08:05:47.028Z,1011.59
2019-06-07T08:06:44.477Z,1011.61
2019-06-07T08:07:44.466Z,1011.64
2019-06-07T08:08:44.458Z,1011.60
2019-06-07T08:09:44.444Z,1011.62
2019-06-07T08:10:44.433Z,1011.59
2019-06-07T08:11:47.229Z,1011.58
2019-06-07T08:13:12.884Z,1011.57
2019-06-07T08:13:45.758Z,1011.57
2019-06-07T08:14:44.397Z,1011.58
2019-06-07T08:15:44.386Z,1011.61
2019-06-07T08:16:44.369Z,1011.61
2019-06-07T08:17:44.359Z,1011.61
2019-06-07T08:18:44.348Z,1011.59
2019-06-07T08:19:44.342Z,1011.71
2019-06-07T08:21:04.679Z,1011.66
2019-06-07T08:21:47.566Z,1011.79
2019-06-07T08:22:44.305Z,1011.78
2019-06-07T08:23:44.296Z,1011.78
2019-06-07T08:24:44.286Z,1011.73
2019-06-07T08:25:44.275Z,1011.81
2019-06-07T08:26:44.260Z,1011.71
2019-06-07T08:27:44.254Z,1011.81
2019-06-07T08:28:44.242Z,1011.84
2019-06-07T08:29:54.070Z,1011.88
2019-06-07T08:30:52.988Z,1011.87
2019-06-07T08:31:45.208Z,1011.91
2019-06-07T08:32:44.198Z,1011.86
2019-06-07T08:33:44.191Z,1011.86
2019-06-07T08:34:44.186Z,1011.69
2019-06-07T08:36:06.014Z,1011.67
2019-06-07T08:36:45.156Z,1011.75
2019-06-07T08:38:48.262Z,1011.63
2019-06-07T08:39:45.126Z,1011.67
2019-06-07T08:40:44.117Z,1011.67
2019-06-07T08:41:54.151Z,1011.63
2019-06-07T08:43:04.425Z,1011.67
2019-06-07T08:43:45.082Z,1011.61
2019-06-07T08:44:44.077Z,1011.59
2019-06-07T08:45:44.066Z,1011.60
2019-06-07T08:46:44.055Z,1011.62
2019-06-07T08:47:44.042Z,1011.63
2019-06-07T08:48:44.030Z,1011.83
2019-06-07T08:49:44.020Z,1011.84
2019-06-07T08:50:44.019Z,1011.92
2019-06-07T08:51:44.002Z,1011.85
2019-06-07T08:52:43.993Z,1011.91
2019-06-07T08:54:00.833Z,1011.84
2019-06-07T08:54:44.969Z,1011.63
2019-06-07T08:55:43.960Z,1011.57
2019-06-07T08:56:43.947Z,1011.75
2019-06-07T08:57:43.955Z,1011.84
2019-06-07T08:58:43.926Z,1011.76
2019-06-07T08:59:43.918Z,1011.97
2019-06-07T09:00:46.903Z,1011.62
2019-06-07T09:01:43.893Z,1011.66
2019-06-07T09:02:43.888Z,1011.57
2019-06-07T09:03:43.876Z,1011.55
2019-06-07T09:04:43.866Z,1011.56
2019-06-07T09:05:43.854Z,1011.62
2019-06-07T09:07:44.837Z,1011.81
2019-06-07T09:08:43.820Z,1011.58
2019-06-07T09:09:43.813Z,1011.70
2019-06-07T09:10:43.800Z,1011.77
2019-06-07T09:11:43.836Z,1011.76
2019-06-07T09:12:43.778Z,1011.74
2019-06-07T09:13:43.768Z,1011.78
2019-06-07T09:14:59.587Z,1011.79
2019-06-07T09:15:44.747Z,1011.77
2019-06-07T09:16:43.792Z,1011.77
2019-06-07T09:18:30.392Z,1011.81
2019-06-07T09:18:45.197Z,1011.79
2019-06-07T09:19:43.707Z,1011.80
2019-06-07T09:20:43.697Z,1011.82
2019-06-07T09:21:43.690Z,1011.83
2019-06-07T09:22:43.679Z,1011.89
2019-06-07T09:23:43.674Z,1011.84
2019-06-07T09:24:43.669Z,1011.84
2019-06-07T09:25:56.743Z,1011.86
2019-06-07T09:26:44.640Z,1011.57
2019-06-07T09:27:43.631Z,1011.70
2019-06-07T09:28:43.621Z,1011.70
2019-06-07T09:29:43.614Z,1011.65
2019-06-07T09:30:43.603Z,1011.63
2019-06-07T09:31:52.554Z,1011.71
2019-06-07T09:32:44.580Z,1011.79
2019-06-07T09:33:43.578Z,1011.81
2019-06-07T09:34:43.567Z,1011.78
2019-06-07T09:35:43.554Z,1011.75
2019-06-07T09:36:43.583Z,1011.75
2019-06-07T09:38:44.539Z,1011.63
2019-06-07T09:39:43.518Z,1011.65
2019-06-07T09:40:43.508Z,1011.73
2019-06-07T09:41:49.413Z,1011.73
2019-06-07T09:42:44.484Z,1011.64
2019-06-07T09:44:44.470Z,1011.73
2019-06-07T09:45:43.468Z,1011.68
2019-06-07T09:46:43.452Z,1011.72
2019-06-07T09:47:43.439Z,1011.59
2019-06-07T09:49:44.424Z,1011.46
2019-06-07T09:50:43.413Z,1011.77
2019-06-07T09:51:43.407Z,1011.71
2019-06-07T09:52:57.748Z,1011.68
2019-06-07T09:53:44.385Z,1011.66
2019-06-07T09:55:05.864Z,1011.68
2019-06-07T09:55:44.365Z,1011.71
2019-06-07T09:56:43.355Z,1011.73
2019-06-07T09:57:43.352Z,1011.74
2019-06-07T09:58:53.270Z,1011.73
2019-06-07T09:59:44.323Z,1011.66
2019-06-07T10:00:43.363Z,1011.67
2019-06-07T10:01:43.311Z,1011.74
2019-06-07T10:02:43.308Z,1011.74
2019-06-07T10:03:43.296Z,1011.80
2019-06-07T10:04:43.281Z,1011.79
2019-06-07T10:05:43.271Z,1011.77
2019-06-07T10:06:43.273Z,1011.73
2019-06-07T10:07:59.582Z,1011.65
2019-06-07T10:10:44.218Z,1011.69
2019-06-07T10:11:43.210Z,1011.71
2019-06-07T10:12:43.200Z,1011.73
2019-06-07T10:13:43.189Z,1011.71
2019-06-07T10:14:45.174Z,1011.68
2019-06-07T10:15:43.170Z,1011.70
2019-06-07T10:16:47.027Z,1011.66
2019-06-07T10:17:43.149Z,1011.67
2019-06-07T10:18:43.141Z,1011.67
2019-06-07T10:19:43.136Z,1011.59
2019-06-07T10:20:43.128Z,1011.51
2019-06-07T10:21:43.123Z,1011.54
2019-06-07T10:22:43.107Z,1011.55
2019-06-07T10:23:43.105Z,1011.35
2019-06-07T10:24:43.157Z,1011.50
2019-06-07T10:25:43.082Z,1011.58
2019-06-07T10:26:43.076Z,1011.59
2019-06-07T10:27:43.060Z,1011.54
2019-06-07T10:28:43.045Z,1011.38
2019-06-07T10:29:43.052Z,1011.32
2019-06-07T10:30:43.030Z,1011.32
2019-06-07T10:31:43.026Z,1011.29
2019-06-07T10:32:43.002Z,1011.58
2019-06-07T10:33:42.994Z,1011.57
2019-06-07T10:34:42.989Z,1011.49
2019-06-07T10:35:42.968Z,1011.50
2019-06-07T10:36:42.974Z,1011.51
2019-06-07T10:37:42.948Z,1011.49
2019-06-07T10:38:42.936Z,1011.49
2019-06-07T10:39:48.713Z,1011.49
2019-06-07T10:40:43.914Z,1011.28
2019-06-07T10:41:42.906Z,1011.35
2019-06-07T10:42:42.906Z,1011.47
2019-06-07T10:43:42.885Z,1011.32
2019-06-07T10:44:42.883Z,1011.37
2019-06-07T10:45:42.864Z,1011.27
2019-06-07T10:46:42.859Z,1011.27
2019-06-07T10:47:42.874Z,1011.25
2019-06-07T10:48:42.832Z,1011.24
2019-06-07T10:49:42.823Z,1011.18
2019-06-07T10:50:42.817Z,1011.12
2019-06-07T10:51:42.803Z,1011.16
2019-06-07T10:52:42.789Z,1011.21
2019-06-07T10:53:42.781Z,1011.30
2019-06-07T10:54:42.773Z,1011.25
2019-06-07T10:55:42.764Z,1011.28
2019-06-07T10:56:42.751Z,1011.27
2019-06-07T10:57:42.740Z,1011.25
2019-06-07T10:58:42.731Z,1011.26
2019-06-07T10:59:42.729Z,1011.27
2019-06-07T11:00:42.713Z,1011.33
2019-06-07T11:01:42.712Z,1011.28
2019-06-07T11:02:42.698Z,1011.21
2019-06-07T11:03:42.685Z,1011.22
2019-06-07T11:04:42.678Z,1011.26
2019-06-07T11:05:42.663Z,1011.25
2019-06-07T11:06:42.675Z,1011.29
2019-06-07T11:07:42.654Z,1011.24
2019-06-07T11:08:42.640Z,1011.19
2019-06-07T11:09:42.629Z,1011.23
2019-06-07T11:10:42.613Z,1011.22
2019-06-07T11:11:42.605Z,1011.20
2019-06-07T11:12:42.594Z,1011.23
2019-06-07T11:13:42.593Z,1011.22
2019-06-07T11:14:42.578Z,1011.15
2019-06-07T11:15:42.561Z,1011.19
2019-06-07T11:16:42.547Z,1011.15
2019-06-07T11:17:42.537Z,1011.21
2019-06-07T11:18:42.524Z,1011.13
2019-06-07T11:19:42.511Z,1011.15
2019-06-07T11:20:42.506Z,1011.13
2019-06-07T11:21:42.490Z,1011.14
2019-06-07T11:22:42.479Z,1011.14
2019-06-07T11:23:42.472Z,1011.14
2019-06-07T11:24:42.465Z,1011.11
2019-06-07T11:25:42.448Z,1011.07
2019-06-07T11:26:42.447Z,1011.04
2019-06-07T11:27:42.426Z,1011.06
2019-06-07T11:28:42.421Z,1011.04
2019-06-07T11:29:42.407Z,1011.03
2019-06-07T11:30:42.396Z,1010.96
2019-06-07T11:31:42.403Z,1010.96
2019-06-07T11:32:42.377Z,1011.00
2019-06-07T11:33:42.367Z,1010.98
2019-06-07T11:34:42.365Z,1010.95
2019-06-07T11:35:42.381Z,1010.92
2019-06-07T11:36:42.334Z,1010.89
2019-06-07T11:37:42.326Z,1010.89
2019-06-07T11:38:42.317Z,1010.94
2019-06-07T11:39:42.303Z,1010.93
2019-06-07T11:40:42.310Z,1010.96
2019-06-07T11:41:42.291Z,1010.87
2019-06-07T11:42:42.304Z,1010.91
2019-06-07T11:43:42.265Z,1010.89
2019-06-07T11:44:55.720Z,1010.86
2019-06-07T11:45:43.239Z,1010.84
2019-06-07T11:46:42.238Z,1010.80
2019-06-07T11:47:42.222Z,1010.81
2019-06-07T11:48:42.213Z,1010.83
2019-06-07T11:49:42.202Z,1010.86
2019-06-07T11:50:42.197Z,1010.73
2019-06-07T11:51:42.183Z,1010.78
2019-06-07T11:52:45.959Z,1010.77
2019-06-07T11:53:42.164Z,1010.70
2019-06-07T11:54:42.156Z,1010.74
2019-06-07T11:55:42.141Z,1010.74
2019-06-07T11:56:42.131Z,1010.76
2019-06-07T11:57:42.120Z,1010.72
2019-06-07T11:58:42.108Z,1010.73
2019-06-07T11:59:42.098Z,1010.69
2019-06-07T12:00:42.087Z,1010.67
2019-06-07T12:01:42.074Z,1010.73
2019-06-07T12:02:42.075Z,1010.74
2019-06-07T12:03:42.059Z,1010.76
2019-06-07T12:04:42.051Z,1010.76
2019-06-07T12:05:42.038Z,1010.76
2019-06-07T12:06:42.029Z,1010.73
2019-06-07T12:07:42.018Z,1010.72
2019-06-07T12:08:42.015Z,1010.68
2019-06-07T12:09:55.531Z,1010.66
2019-06-07T12:10:42.987Z,1010.66
2019-06-07T12:11:41.977Z,1010.62
2019-06-07T12:12:41.970Z,1010.57
2019-06-07T12:13:41.956Z,1010.58
2019-06-07T12:14:41.949Z,1010.56
2019-06-07T12:15:41.939Z,1010.59
2019-06-07T12:16:41.983Z,1010.58
2019-06-07T12:17:41.915Z,1010.58